sensor_id;sensor_type;location;lat;lon;timestamp;P1;durP1;ratioP1;P2;durP2;ratioP2
72209;SDS011;60113;48.762;12.302;2022-12-18T00:02:09;134.77;;;48.17;;
72209;SDS011;60113;48.762;12.302;2022-12-18T00:04:37;135.88;;;48.40;;
72209;SDS011;60113;48.762;12.302;2022-12-18T00:07:02;132.98;;;49.10;;
72209;SDS011;60113;48.762;12.302;2022-12-18T00:09:28;150.23;;;51.63;;
72209;SDS011;60113;48.762;12.302;2022-12-18T00:11:54;139.15;;;53.38;;
72209;SDS011;60113;48.762;12.302;2022-12-18T00:14:19;138.02;;;48.88;;
72209;SDS011;60113;48.762;12.302;2022-12-18T00:16:45;145.13;;;53.15;;
72209;SDS011;60113;48.762;12.302;2022-12-18T00:19:12;143.98;;;52.45;;
72209;SDS011;60113;48.762;12.302;2022-12-18T00:21:39;143.05;;;48.67;;
72209;SDS011;60113;48.762;12.302;2022-12-18T00:24:05;134.95;;;49.85;;
72209;SDS011;60113;48.762;12.302;2022-12-18T00:26:31;143.93;;;53.20;;
72209;SDS011;60113;48.762;12.302;2022-12-18T00:28:59;127.90;;;49.08;;
72209;SDS011;60113;48.762;12.302;2022-12-18T00:31:29;128.15;;;46.58;;
72209;SDS011;60113;48.762;12.302;2022-12-18T00:33:55;140.85;;;50.53;;
72209;SDS011;60113;48.762;12.302;2022-12-18T00:36:22;144.20;;;50.55;;
72209;SDS011;60113;48.762;12.302;2022-12-18T00:38:49;148.02;;;55.58;;
72209;SDS011;60113;48.762;12.302;2022-12-18T00:41:16;147.88;;;51.10;;
72209;SDS011;60113;48.762;12.302;2022-12-18T00:44:03;154.35;;;55.15;;
72209;SDS011;60113;48.762;12.302;2022-12-18T00:46:29;149.57;;;54.53;;
72209;SDS011;60113;48.762;12.302;2022-12-18T00:48:55;160.57;;;53.92;;
72209;SDS011;60113;48.762;12.302;2022-12-18T00:51:21;156.23;;;54.70;;
72209;SDS011;60113;48.762;12.302;2022-12-18T00:53:46;142.23;;;53.88;;
72209;SDS011;60113;48.762;12.302;2022-12-18T00:56:12;154.18;;;55.05;;
72209;SDS011;60113;48.762;12.302;2022-12-18T00:58:37;166.18;;;56.30;;
72209;SDS011;60113;48.762;12.302;2022-12-18T01:01:06;152.77;;;55.17;;
72209;SDS011;60113;48.762;12.302;2022-12-18T01:03:32;142.15;;;54.75;;
72209;SDS011;60113;48.762;12.302;2022-12-18T01:05:57;151.80;;;57.42;;
72209;SDS011;60113;48.762;12.302;2022-12-18T01:08:23;151.07;;;54.10;;
72209;SDS011;60113;48.762;12.302;2022-12-18T01:10:49;140.57;;;52.30;;
72209;SDS011;60113;48.762;12.302;2022-12-18T01:13:15;152.27;;;55.40;;
72209;SDS011;60113;48.762;12.302;2022-12-18T01:15:47;155.07;;;53.40;;
72209;SDS011;60113;48.762;12.302;2022-12-18T01:18:14;145.43;;;54.17;;
72209;SDS011;60113;48.762;12.302;2022-12-18T01:20:39;154.10;;;54.00;;
72209;SDS011;60113;48.762;12.302;2022-12-18T01:23:05;153.65;;;56.35;;
72209;SDS011;60113;48.762;12.302;2022-12-18T01:25:30;139.70;;;51.58;;
72209;SDS011;60113;48.762;12.302;2022-12-18T01:27:56;127.65;;;46.53;;
72209;SDS011;60113;48.762;12.302;2022-12-18T01:30:21;133.65;;;47.25;;
72209;SDS011;60113;48.762;12.302;2022-12-18T01:32:47;138.30;;;48.88;;
72209;SDS011;60113;48.762;12.302;2022-12-18T01:35:12;148.55;;;52.90;;
72209;SDS011;60113;48.762;12.302;2022-12-18T01:37:38;148.50;;;49.65;;
72209;SDS011;60113;48.762;12.302;2022-12-18T01:40:03;151.23;;;50.88;;
72209;SDS011;60113;48.762;12.302;2022-12-18T01:42:30;149.48;;;48.58;;
72209;SDS011;60113;48.762;12.302;2022-12-18T01:49:52;175.60;;;55.13;;
72209;SDS011;60113;48.762;12.302;2022-12-18T01:52:19;155.50;;;51.63;;
72209;SDS011;60113;48.762;12.302;2022-12-18T01:54:46;157.60;;;52.78;;
72209;SDS011;60113;48.762;12.302;2022-12-18T01:57:13;158.00;;;50.10;;
72209;SDS011;60113;48.762;12.302;2022-12-18T01:59:39;149.23;;;49.42;;
72209;SDS011;60113;48.762;12.302;2022-12-18T02:02:07;147.70;;;48.63;;
72209;SDS011;60113;48.762;12.302;2022-12-18T02:04:33;141.95;;;47.13;;
72209;SDS011;60113;48.762;12.302;2022-12-18T02:09:54;144.13;;;49.42;;
72209;SDS011;60113;48.762;12.302;2022-12-18T02:12:27;142.63;;;49.72;;
72209;SDS011;60113;48.762;12.302;2022-12-18T02:18:17;138.60;;;47.15;;
72209;SDS011;60113;48.762;12.302;2022-12-18T02:23:23;139.60;;;47.15;;
72209;SDS011;60113;48.762;12.302;2022-12-18T02:26:20;143.10;;;47.53;;
72209;SDS011;60113;48.762;12.302;2022-12-18T02:28:55;130.75;;;43.95;;
72209;SDS011;60113;48.762;12.302;2022-12-18T02:31:42;132.60;;;48.00;;
72209;SDS011;60113;48.762;12.302;2022-12-18T02:34:12;131.23;;;46.20;;
72209;SDS011;60113;48.762;12.302;2022-12-18T02:36:39;100.13;;;34.53;;
72209;SDS011;60113;48.762;12.302;2022-12-18T02:39:09;117.70;;;42.38;;
72209;SDS011;60113;48.762;12.302;2022-12-18T02:41:36;141.13;;;48.05;;
72209;SDS011;60113;48.762;12.302;2022-12-18T02:44:07;135.65;;;47.05;;
72209;SDS011;60113;48.762;12.302;2022-12-18T02:46:35;101.10;;;35.60;;
72209;SDS011;60113;48.762;12.302;2022-12-18T02:51:42;140.60;;;47.17;;
72209;SDS011;60113;48.762;12.302;2022-12-18T02:54:19;129.68;;;45.55;;
72209;SDS011;60113;48.762;12.302;2022-12-18T02:56:51;125.85;;;44.95;;
72209;SDS011;60113;48.762;12.302;2022-12-18T02:59:26;126.88;;;45.33;;
72209;SDS011;60113;48.762;12.302;2022-12-18T03:02:01;137.02;;;48.40;;
72209;SDS011;60113;48.762;12.302;2022-12-18T03:04:36;123.47;;;45.28;;
72209;SDS011;60113;48.762;12.302;2022-12-18T03:07:15;138.10;;;49.10;;
72209;SDS011;60113;48.762;12.302;2022-12-18T03:09:49;137.18;;;49.13;;
72209;SDS011;60113;48.762;12.302;2022-12-18T03:17:47;128.15;;;47.15;;
72209;SDS011;60113;48.762;12.302;2022-12-18T03:20:18;120.25;;;43.60;;
72209;SDS011;60113;48.762;12.302;2022-12-18T03:22:47;111.72;;;41.83;;
72209;SDS011;60113;48.762;12.302;2022-12-18T03:25:18;117.22;;;43.00;;
72209;SDS011;60113;48.762;12.302;2022-12-18T03:27:49;118.53;;;44.58;;
72209;SDS011;60113;48.762;12.302;2022-12-18T03:30:19;119.78;;;43.95;;
72209;SDS011;60113;48.762;12.302;2022-12-18T03:35:36;111.00;;;43.55;;
72209;SDS011;60113;48.762;12.302;2022-12-18T03:38:04;112.68;;;43.38;;
72209;SDS011;60113;48.762;12.302;2022-12-18T03:40:33;117.00;;;42.97;;
72209;SDS011;60113;48.762;12.302;2022-12-18T03:43:09;121.53;;;44.63;;
72209;SDS011;60113;48.762;12.302;2022-12-18T03:45:42;125.47;;;45.17;;
72209;SDS011;60113;48.762;12.302;2022-12-18T03:48:29;120.72;;;43.40;;
72209;SDS011;60113;48.762;12.302;2022-12-18T03:51:05;126.53;;;43.83;;
72209;SDS011;60113;48.762;12.302;2022-12-18T03:56:22;128.52;;;47.03;;
72209;SDS011;60113;48.762;12.302;2022-12-18T03:58:52;128.85;;;46.38;;
72209;SDS011;60113;48.762;12.302;2022-12-18T04:01:19;126.70;;;45.28;;
72209;SDS011;60113;48.762;12.302;2022-12-18T04:03:49;125.50;;;44.88;;
72209;SDS011;60113;48.762;12.302;2022-12-18T04:06:16;123.47;;;44.55;;
72209;SDS011;60113;48.762;12.302;2022-12-18T04:08:43;122.10;;;42.63;;
72209;SDS011;60113;48.762;12.302;2022-12-18T04:11:09;118.75;;;44.03;;
72209;SDS011;60113;48.762;12.302;2022-12-18T04:13:36;107.57;;;40.03;;
72209;SDS011;60113;48.762;12.302;2022-12-18T04:16:03;108.10;;;39.28;;
72209;SDS011;60113;48.762;12.302;2022-12-18T04:18:29;116.95;;;41.83;;
72209;SDS011;60113;48.762;12.302;2022-12-18T04:20:55;98.28;;;38.88;;
72209;SDS011;60113;48.762;12.302;2022-12-18T04:23:20;99.95;;;36.08;;
72209;SDS011;60113;48.762;12.302;2022-12-18T04:25:46;89.07;;;35.63;;
72209;SDS011;60113;48.762;12.302;2022-12-18T04:28:12;101.10;;;39.60;;
72209;SDS011;60113;48.762;12.302;2022-12-18T04:30:37;100.13;;;37.45;;
72209;SDS011;60113;48.762;12.302;2022-12-18T04:33:03;94.72;;;37.17;;
72209;SDS011;60113;48.762;12.302;2022-12-18T04:35:28;97.15;;;38.83;;
72209;SDS011;60113;48.762;12.302;2022-12-18T04:37:54;100.63;;;38.47;;
72209;SDS011;60113;48.762;12.302;2022-12-18T04:40:19;106.80;;;38.95;;
72209;SDS011;60113;48.762;12.302;2022-12-18T04:42:45;105.93;;;39.97;;
72209;SDS011;60113;48.762;12.302;2022-12-18T04:45:10;106.80;;;39.28;;
72209;SDS011;60113;48.762;12.302;2022-12-18T04:47:36;106.38;;;39.15;;
72209;SDS011;60113;48.762;12.302;2022-12-18T04:50:01;98.38;;;37.40;;
72209;SDS011;60113;48.762;12.302;2022-12-18T04:52:26;103.18;;;36.55;;
72209;SDS011;60113;48.762;12.302;2022-12-18T04:54:52;111.90;;;40.20;;
72209;SDS011;60113;48.762;12.302;2022-12-18T04:57:17;101.35;;;39.55;;
72209;SDS011;60113;48.762;12.302;2022-12-18T04:59:43;108.03;;;38.92;;
72209;SDS011;60113;48.762;12.302;2022-12-18T05:02:09;108.22;;;37.85;;
72209;SDS011;60113;48.762;12.302;2022-12-18T05:04:34;68.68;;;25.60;;
72209;SDS011;60113;48.762;12.302;2022-12-18T05:07:00;100.38;;;36.53;;
72209;SDS011;60113;48.762;12.302;2022-12-18T05:09:25;110.32;;;39.03;;
72209;SDS011;60113;48.762;12.302;2022-12-18T05:11:51;98.97;;;37.58;;
72209;SDS011;60113;48.762;12.302;2022-12-18T05:14:16;108.60;;;38.63;;
72209;SDS011;60113;48.762;12.302;2022-12-18T05:16:42;113.50;;;38.50;;
72209;SDS011;60113;48.762;12.302;2022-12-18T05:19:07;108.72;;;39.47;;
72209;SDS011;60113;48.762;12.302;2022-12-18T05:21:32;110.32;;;39.97;;
72209;SDS011;60113;48.762;12.302;2022-12-18T05:23:58;113.85;;;41.70;;
72209;SDS011;60113;48.762;12.302;2022-12-18T05:26:23;124.00;;;43.50;;
72209;SDS011;60113;48.762;12.302;2022-12-18T05:28:49;92.07;;;35.42;;
72209;SDS011;60113;48.762;12.302;2022-12-18T05:31:14;102.03;;;39.22;;
72209;SDS011;60113;48.762;12.302;2022-12-18T05:33:40;107.70;;;38.28;;
72209;SDS011;60113;48.762;12.302;2022-12-18T05:36:06;104.72;;;39.33;;
72209;SDS011;60113;48.762;12.302;2022-12-18T05:38:34;87.03;;;31.98;;
72209;SDS011;60113;48.762;12.302;2022-12-18T05:41:01;110.30;;;41.00;;
72209;SDS011;60113;48.762;12.302;2022-12-18T05:43:29;104.78;;;40.38;;
72209;SDS011;60113;48.762;12.302;2022-12-18T05:45:54;107.82;;;40.15;;
72209;SDS011;60113;48.762;12.302;2022-12-18T05:48:21;114.35;;;41.22;;
72209;SDS011;60113;48.762;12.302;2022-12-18T05:50:47;107.97;;;41.28;;
72209;SDS011;60113;48.762;12.302;2022-12-18T05:53:15;96.78;;;38.15;;
72209;SDS011;60113;48.762;12.302;2022-12-18T05:55:42;109.10;;;40.50;;
72209;SDS011;60113;48.762;12.302;2022-12-18T05:58:08;111.35;;;43.35;;
72209;SDS011;60113;48.762;12.302;2022-12-18T06:00:37;104.93;;;40.88;;
72209;SDS011;60113;48.762;12.302;2022-12-18T06:03:09;100.90;;;37.00;;
72209;SDS011;60113;48.762;12.302;2022-12-18T06:05:40;108.78;;;41.25;;
72209;SDS011;60113;48.762;12.302;2022-12-18T06:08:10;116.03;;;44.35;;
72209;SDS011;60113;48.762;12.302;2022-12-18T06:10:36;99.40;;;39.05;;
72209;SDS011;60113;48.762;12.302;2022-12-18T06:13:02;99.63;;;37.85;;
72209;SDS011;60113;48.762;12.302;2022-12-18T06:15:28;106.28;;;39.65;;
72209;SDS011;60113;48.762;12.302;2022-12-18T06:17:54;120.50;;;43.50;;
72209;SDS011;60113;48.762;12.302;2022-12-18T06:20:20;110.45;;;40.72;;
72209;SDS011;60113;48.762;12.302;2022-12-18T06:22:45;112.65;;;40.60;;
72209;SDS011;60113;48.762;12.302;2022-12-18T06:25:11;109.15;;;40.80;;
72209;SDS011;60113;48.762;12.302;2022-12-18T06:27:37;108.35;;;42.83;;
72209;SDS011;60113;48.762;12.302;2022-12-18T06:30:03;109.78;;;40.47;;
72209;SDS011;60113;48.762;12.302;2022-12-18T06:32:29;104.68;;;39.40;;
72209;SDS011;60113;48.762;12.302;2022-12-18T06:34:55;100.75;;;39.83;;
72209;SDS011;60113;48.762;12.302;2022-12-18T06:37:21;101.95;;;39.00;;
72209;SDS011;60113;48.762;12.302;2022-12-18T06:39:49;113.05;;;42.28;;
72209;SDS011;60113;48.762;12.302;2022-12-18T06:42:15;110.63;;;42.40;;
72209;SDS011;60113;48.762;12.302;2022-12-18T06:44:40;113.55;;;41.53;;
72209;SDS011;60113;48.762;12.302;2022-12-18T06:47:06;110.18;;;42.33;;
72209;SDS011;60113;48.762;12.302;2022-12-18T06:49:31;109.72;;;40.70;;
72209;SDS011;60113;48.762;12.302;2022-12-18T06:51:57;108.30;;;39.47;;
72209;SDS011;60113;48.762;12.302;2022-12-18T06:54:22;106.15;;;42.47;;
72209;SDS011;60113;48.762;12.302;2022-12-18T06:56:47;113.45;;;43.55;;
72209;SDS011;60113;48.762;12.302;2022-12-18T06:59:13;107.15;;;41.47;;
72209;SDS011;60113;48.762;12.302;2022-12-18T07:01:39;101.70;;;39.90;;
72209;SDS011;60113;48.762;12.302;2022-12-18T07:04:05;107.20;;;42.17;;
72209;SDS011;60113;48.762;12.302;2022-12-18T07:06:30;96.22;;;37.75;;
72209;SDS011;60113;48.762;12.302;2022-12-18T07:08:55;109.45;;;46.50;;
72209;SDS011;60113;48.762;12.302;2022-12-18T07:11:21;88.53;;;37.97;;
72209;SDS011;60113;48.762;12.302;2022-12-18T07:13:47;105.55;;;43.17;;
72209;SDS011;60113;48.762;12.302;2022-12-18T07:16:19;92.70;;;37.60;;
72209;SDS011;60113;48.762;12.302;2022-12-18T07:18:46;86.07;;;34.78;;
72209;SDS011;60113;48.762;12.302;2022-12-18T07:21:13;98.63;;;39.90;;
72209;SDS011;60113;48.762;12.302;2022-12-18T07:23:40;101.53;;;39.13;;
72209;SDS011;60113;48.762;12.302;2022-12-18T07:26:07;105.10;;;41.08;;
72209;SDS011;60113;48.762;12.302;2022-12-18T07:28:36;88.90;;;36.60;;
72209;SDS011;60113;48.762;12.302;2022-12-18T07:31:03;100.43;;;39.17;;
72209;SDS011;60113;48.762;12.302;2022-12-18T07:33:29;101.63;;;39.65;;
72209;SDS011;60113;48.762;12.302;2022-12-18T07:35:55;109.85;;;41.78;;
72209;SDS011;60113;48.762;12.302;2022-12-18T07:38:20;101.25;;;40.75;;
72209;SDS011;60113;48.762;12.302;2022-12-18T07:40:47;110.68;;;43.05;;
72209;SDS011;60113;48.762;12.302;2022-12-18T07:43:12;110.50;;;44.75;;
72209;SDS011;60113;48.762;12.302;2022-12-18T07:45:37;112.80;;;44.72;;
72209;SDS011;60113;48.762;12.302;2022-12-18T07:48:03;112.32;;;47.88;;
72209;SDS011;60113;48.762;12.302;2022-12-18T07:50:29;123.03;;;54.47;;
72209;SDS011;60113;48.762;12.302;2022-12-18T07:52:54;103.40;;;40.25;;
72209;SDS011;60113;48.762;12.302;2022-12-18T07:55:20;112.65;;;43.08;;
72209;SDS011;60113;48.762;12.302;2022-12-18T07:57:45;115.03;;;43.70;;
72209;SDS011;60113;48.762;12.302;2022-12-18T08:00:11;98.90;;;40.78;;
72209;SDS011;60113;48.762;12.302;2022-12-18T08:02:37;101.68;;;39.33;;
72209;SDS011;60113;48.762;12.302;2022-12-18T08:05:03;98.85;;;39.47;;
72209;SDS011;60113;48.762;12.302;2022-12-18T08:07:28;97.05;;;41.38;;
72209;SDS011;60113;48.762;12.302;2022-12-18T08:09:54;98.78;;;40.05;;
72209;SDS011;60113;48.762;12.302;2022-12-18T08:12:19;96.47;;;41.05;;
72209;SDS011;60113;48.762;12.302;2022-12-18T08:14:44;89.88;;;39.15;;
72209;SDS011;60113;48.762;12.302;2022-12-18T08:17:10;78.50;;;35.08;;
72209;SDS011;60113;48.762;12.302;2022-12-18T08:19:35;69.18;;;29.10;;
72209;SDS011;60113;48.762;12.302;2022-12-18T08:22:01;77.25;;;33.47;;
72209;SDS011;60113;48.762;12.302;2022-12-18T08:24:26;79.40;;;33.50;;
72209;SDS011;60113;48.762;12.302;2022-12-18T08:26:52;72.53;;;33.28;;
72209;SDS011;60113;48.762;12.302;2022-12-18T08:29:17;71.40;;;31.63;;
72209;SDS011;60113;48.762;12.302;2022-12-18T08:31:43;64.28;;;30.77;;
72209;SDS011;60113;48.762;12.302;2022-12-18T08:34:08;74.75;;;35.53;;
72209;SDS011;60113;48.762;12.302;2022-12-18T08:36:34;65.32;;;30.58;;
72209;SDS011;60113;48.762;12.302;2022-12-18T08:39:00;61.53;;;28.80;;
72209;SDS011;60113;48.762;12.302;2022-12-18T08:41:25;61.70;;;29.33;;
72209;SDS011;60113;48.762;12.302;2022-12-18T08:43:51;69.53;;;32.58;;
72209;SDS011;60113;48.762;12.302;2022-12-18T08:46:36;63.17;;;30.50;;
72209;SDS011;60113;48.762;12.302;2022-12-18T08:49:03;71.22;;;32.65;;
72209;SDS011;60113;48.762;12.302;2022-12-18T08:51:30;76.30;;;37.05;;
72209;SDS011;60113;48.762;12.302;2022-12-18T08:53:56;75.65;;;38.03;;
72209;SDS011;60113;48.762;12.302;2022-12-18T08:56:22;72.95;;;33.65;;
72209;SDS011;60113;48.762;12.302;2022-12-18T08:58:50;76.00;;;37.92;;
72209;SDS011;60113;48.762;12.302;2022-12-18T09:01:16;74.97;;;35.95;;
72209;SDS011;60113;48.762;12.302;2022-12-18T09:03:42;69.18;;;32.65;;
72209;SDS011;60113;48.762;12.302;2022-12-18T09:06:08;76.80;;;34.45;;
72209;SDS011;60113;48.762;12.302;2022-12-18T09:08:35;65.43;;;30.80;;
72209;SDS011;60113;48.762;12.302;2022-12-18T09:11:02;68.70;;;33.00;;
72209;SDS011;60113;48.762;12.302;2022-12-18T09:13:27;65.20;;;31.92;;
72209;SDS011;60113;48.762;12.302;2022-12-18T09:15:54;68.22;;;31.88;;
72209;SDS011;60113;48.762;12.302;2022-12-18T09:18:21;65.38;;;32.08;;
72209;SDS011;60113;48.762;12.302;2022-12-18T09:20:48;58.85;;;28.38;;
72209;SDS011;60113;48.762;12.302;2022-12-18T09:23:16;55.42;;;25.58;;
72209;SDS011;60113;48.762;12.302;2022-12-18T09:25:42;56.63;;;26.73;;
72209;SDS011;60113;48.762;12.302;2022-12-18T09:28:12;52.80;;;26.58;;
72209;SDS011;60113;48.762;12.302;2022-12-18T09:30:39;56.75;;;27.77;;
72209;SDS011;60113;48.762;12.302;2022-12-18T09:33:06;52.08;;;28.13;;
72209;SDS011;60113;48.762;12.302;2022-12-18T09:35:32;50.72;;;26.23;;
72209;SDS011;60113;48.762;12.302;2022-12-18T09:37:57;50.80;;;25.77;;
72209;SDS011;60113;48.762;12.302;2022-12-18T09:40:24;52.75;;;25.40;;
72209;SDS011;60113;48.762;12.302;2022-12-18T09:42:55;46.97;;;23.75;;
72209;SDS011;60113;48.762;12.302;2022-12-18T09:45:24;43.05;;;23.45;;
72209;SDS011;60113;48.762;12.302;2022-12-18T09:47:50;43.95;;;22.67;;
72209;SDS011;60113;48.762;12.302;2022-12-18T09:52:59;44.15;;;22.30;;
72209;SDS011;60113;48.762;12.302;2022-12-18T09:55:36;44.35;;;22.88;;
72209;SDS011;60113;48.762;12.302;2022-12-18T10:00:45;50.30;;;23.88;;
72209;SDS011;60113;48.762;12.302;2022-12-18T10:03:12;45.42;;;24.58;;
72209;SDS011;60113;48.762;12.302;2022-12-18T10:14:09;49.47;;;26.67;;
72209;SDS011;60113;48.762;12.302;2022-12-18T10:16:51;49.88;;;28.30;;
72209;SDS011;60113;48.762;12.302;2022-12-18T10:25:05;64.85;;;31.42;;
72209;SDS011;60113;48.762;12.302;2022-12-18T10:27:41;51.53;;;28.08;;
72209;SDS011;60113;48.762;12.302;2022-12-18T10:30:13;51.70;;;26.58;;
72209;SDS011;60113;48.762;12.302;2022-12-18T10:32:41;46.65;;;25.20;;
72209;SDS011;60113;48.762;12.302;2022-12-18T10:35:25;51.63;;;25.05;;
72209;SDS011;60113;48.762;12.302;2022-12-18T10:40:29;50.95;;;25.55;;
72209;SDS011;60113;48.762;12.302;2022-12-18T10:43:11;45.10;;;22.45;;
72209;SDS011;60113;48.762;12.302;2022-12-18T10:45:38;55.05;;;27.55;;
72209;SDS011;60113;48.762;12.302;2022-12-18T10:48:04;55.53;;;28.10;;
72209;SDS011;60113;48.762;12.302;2022-12-18T10:50:45;53.08;;;27.95;;
72209;SDS011;60113;48.762;12.302;2022-12-18T10:53:13;52.20;;;27.25;;
72209;SDS011;60113;48.762;12.302;2022-12-18T10:55:45;60.47;;;29.02;;
72209;SDS011;60113;48.762;12.302;2022-12-18T11:03:43;50.65;;;25.30;;
72209;SDS011;60113;48.762;12.302;2022-12-18T11:06:12;56.25;;;27.42;;
72209;SDS011;60113;48.762;12.302;2022-12-18T11:08:39;62.30;;;29.70;;
72209;SDS011;60113;48.762;12.302;2022-12-18T11:11:20;56.13;;;29.33;;
72209;SDS011;60113;48.762;12.302;2022-12-18T11:16:21;53.40;;;27.23;;
72209;SDS011;60113;48.762;12.302;2022-12-18T11:18:47;55.28;;;27.48;;
72209;SDS011;60113;48.762;12.302;2022-12-18T11:21:12;47.65;;;26.33;;
72209;SDS011;60113;48.762;12.302;2022-12-18T11:23:52;54.60;;;26.23;;
72209;SDS011;60113;48.762;12.302;2022-12-18T11:26:19;49.17;;;23.40;;
72209;SDS011;60113;48.762;12.302;2022-12-18T11:28:49;43.38;;;21.65;;
72209;SDS011;60113;48.762;12.302;2022-12-18T11:31:26;43.67;;;23.50;;
72209;SDS011;60113;48.762;12.302;2022-12-18T11:34:12;47.13;;;24.27;;
72209;SDS011;60113;48.762;12.302;2022-12-18T11:36:46;45.58;;;22.63;;
72209;SDS011;60113;48.762;12.302;2022-12-18T11:42:12;42.35;;;22.23;;
72209;SDS011;60113;48.762;12.302;2022-12-18T11:44:51;41.35;;;20.70;;
72209;SDS011;60113;48.762;12.302;2022-12-18T11:50:14;42.92;;;22.08;;
72209;SDS011;60113;48.762;12.302;2022-12-18T11:52:43;42.15;;;22.85;;
72209;SDS011;60113;48.762;12.302;2022-12-18T11:55:13;44.97;;;22.98;;
72209;SDS011;60113;48.762;12.302;2022-12-18T12:00:48;42.53;;;20.75;;
72209;SDS011;60113;48.762;12.302;2022-12-18T12:03:35;42.40;;;22.05;;
72209;SDS011;60113;48.762;12.302;2022-12-18T12:09:19;41.75;;;22.13;;
72209;SDS011;60113;48.762;12.302;2022-12-18T12:15:13;41.45;;;21.83;;
72209;SDS011;60113;48.762;12.302;2022-12-18T12:17:55;42.65;;;22.55;;
72209;SDS011;60113;48.762;12.302;2022-12-18T12:20:35;45.63;;;23.15;;
72209;SDS011;60113;48.762;12.302;2022-12-18T12:26:42;74.53;;;38.08;;
72209;SDS011;60113;48.762;12.302;2022-12-18T12:37:48;49.85;;;24.60;;
72209;SDS011;60113;48.762;12.302;2022-12-18T12:40:18;43.85;;;23.58;;
72209;SDS011;60113;48.762;12.302;2022-12-18T12:43:05;45.30;;;24.70;;
72209;SDS011;60113;48.762;12.302;2022-12-18T12:45:50;53.50;;;27.83;;
72209;SDS011;60113;48.762;12.302;2022-12-18T12:51:32;44.53;;;22.73;;
72209;SDS011;60113;48.762;12.302;2022-12-18T12:53:59;41.72;;;22.35;;
72209;SDS011;60113;48.762;12.302;2022-12-18T12:56:32;43.00;;;22.33;;
72209;SDS011;60113;48.762;12.302;2022-12-18T13:07:19;38.15;;;21.83;;
72209;SDS011;60113;48.762;12.302;2022-12-18T13:13:06;48.10;;;28.15;;
72209;SDS011;60113;48.762;12.302;2022-12-18T13:15:36;37.97;;;22.63;;
72209;SDS011;60113;48.762;12.302;2022-12-18T13:20:38;47.50;;;27.98;;
72209;SDS011;60113;48.762;12.302;2022-12-18T13:26:31;42.20;;;24.88;;
72209;SDS011;60113;48.762;12.302;2022-12-18T13:33:40;42.58;;;24.60;;
72209;SDS011;60113;48.762;12.302;2022-12-18T13:38:38;41.10;;;22.95;;
72209;SDS011;60113;48.762;12.302;2022-12-18T13:43:45;37.97;;;21.33;;
72209;SDS011;60113;48.762;12.302;2022-12-18T13:46:28;37.50;;;21.33;;
72209;SDS011;60113;48.762;12.302;2022-12-18T13:49:54;35.78;;;19.60;;
72209;SDS011;60113;48.762;12.302;2022-12-18T13:51:58;35.15;;;20.13;;
72209;SDS011;60113;48.762;12.302;2022-12-18T13:57:00;36.05;;;20.23;;
72209;SDS011;60113;48.762;12.302;2022-12-18T13:59:33;33.95;;;20.48;;
72209;SDS011;60113;48.762;12.302;2022-12-18T14:02:07;37.47;;;20.73;;
72209;SDS011;60113;48.762;12.302;2022-12-18T14:04:38;36.58;;;20.80;;
72209;SDS011;60113;48.762;12.302;2022-12-18T14:09:37;34.85;;;20.17;;
72209;SDS011;60113;48.762;12.302;2022-12-18T14:12:06;34.42;;;19.92;;
72209;SDS011;60113;48.762;12.302;2022-12-18T14:14:56;42.53;;;21.10;;
72209;SDS011;60113;48.762;12.302;2022-12-18T14:17:22;37.55;;;19.98;;
72209;SDS011;60113;48.762;12.302;2022-12-18T14:19:48;36.47;;;21.77;;
72209;SDS011;60113;48.762;12.302;2022-12-18T14:22:20;37.47;;;21.75;;
72209;SDS011;60113;48.762;12.302;2022-12-18T14:27:52;35.80;;;20.48;;
72209;SDS011;60113;48.762;12.302;2022-12-18T14:35:43;38.05;;;19.67;;
72209;SDS011;60113;48.762;12.302;2022-12-18T14:38:29;37.92;;;21.38;;
72209;SDS011;60113;48.762;12.302;2022-12-18T14:41:04;40.13;;;22.55;;
72209;SDS011;60113;48.762;12.302;2022-12-18T14:43:37;40.47;;;22.67;;
72209;SDS011;60113;48.762;12.302;2022-12-18T14:46:38;37.58;;;21.52;;
72209;SDS011;60113;48.762;12.302;2022-12-18T14:48:59;42.03;;;22.33;;
72209;SDS011;60113;48.762;12.302;2022-12-18T14:51:29;42.47;;;21.92;;
72209;SDS011;60113;48.762;12.302;2022-12-18T14:53:57;41.63;;;22.65;;
72209;SDS011;60113;48.762;12.302;2022-12-18T14:58:54;84.95;;;39.58;;
72209;SDS011;60113;48.762;12.302;2022-12-18T15:01:27;79.47;;;36.38;;
72209;SDS011;60113;48.762;12.302;2022-12-18T15:03:57;118.57;;;46.40;;
72209;SDS011;60113;48.762;12.302;2022-12-18T15:06:26;102.90;;;45.85;;
72209;SDS011;60113;48.762;12.302;2022-12-18T15:08:52;98.00;;;43.65;;
72209;SDS011;60113;48.762;12.302;2022-12-18T15:11:35;100.72;;;45.25;;
72209;SDS011;60113;48.762;12.302;2022-12-18T15:16:55;92.65;;;43.05;;
72209;SDS011;60113;48.762;12.302;2022-12-18T15:19:25;89.78;;;40.35;;
72209;SDS011;60113;48.762;12.302;2022-12-18T15:22:39;139.57;;;56.60;;
72209;SDS011;60113;48.762;12.302;2022-12-18T15:25:00;119.32;;;53.08;;
72209;SDS011;60113;48.762;12.302;2022-12-18T15:30:24;103.60;;;46.00;;
72209;SDS011;60113;48.762;12.302;2022-12-18T15:32:50;107.90;;;45.45;;
72209;SDS011;60113;48.762;12.302;2022-12-18T15:35:20;154.32;;;65.07;;
72209;SDS011;60113;48.762;12.302;2022-12-18T15:37:48;125.80;;;51.50;;
72209;SDS011;60113;48.762;12.302;2022-12-18T15:40:19;127.88;;;53.00;;
72209;SDS011;60113;48.762;12.302;2022-12-18T15:42:46;125.65;;;51.97;;
72209;SDS011;60113;48.762;12.302;2022-12-18T15:45:32;118.75;;;53.05;;
72209;SDS011;60113;48.762;12.302;2022-12-18T15:47:58;136.07;;;54.80;;
72209;SDS011;60113;48.762;12.302;2022-12-18T15:50:23;140.75;;;55.33;;
72209;SDS011;60113;48.762;12.302;2022-12-18T15:52:50;129.60;;;51.60;;
72209;SDS011;60113;48.762;12.302;2022-12-18T15:55:18;152.07;;;62.88;;
72209;SDS011;60113;48.762;12.302;2022-12-18T15:58:04;148.00;;;55.70;;
72209;SDS011;60113;48.762;12.302;2022-12-18T16:00:31;140.60;;;53.08;;
72209;SDS011;60113;48.762;12.302;2022-12-18T16:02:59;142.85;;;54.92;;
72209;SDS011;60113;48.762;12.302;2022-12-18T16:05:24;146.20;;;53.58;;
72209;SDS011;60113;48.762;12.302;2022-12-18T16:07:52;118.15;;;47.15;;
72209;SDS011;60113;48.762;12.302;2022-12-18T16:10:17;138.00;;;52.65;;
72209;SDS011;60113;48.762;12.302;2022-12-18T16:12:43;143.63;;;52.17;;
72209;SDS011;60113;48.762;12.302;2022-12-18T16:15:10;156.27;;;57.28;;
72209;SDS011;60113;48.762;12.302;2022-12-18T16:17:38;155.93;;;58.17;;
72209;SDS011;60113;48.762;12.302;2022-12-18T16:20:05;153.73;;;54.05;;
72209;SDS011;60113;48.762;12.302;2022-12-18T16:22:36;161.13;;;57.30;;
72209;SDS011;60113;48.762;12.302;2022-12-18T16:25:02;159.80;;;58.80;;
72209;SDS011;60113;48.762;12.302;2022-12-18T16:27:28;164.88;;;56.60;;
72209;SDS011;60113;48.762;12.302;2022-12-18T16:29:53;157.73;;;55.92;;